sensor_id;sensor_type;location;lat;lon;timestamp;pressure;altitude;pressure_sealevel;temperature;humidity
23241;BME280;11789;53.482;9.862;2023-04-06T00:00:55;102101.78;;;1.57;91.34
23241;BME280;11789;53.482;9.862;2023-04-06T00:03:21;102105.84;;;1.53;91.50
23241;BME280;11789;53.482;9.862;2023-04-06T00:05:47;102103.31;;;1.53;91.24
23241;BME280;11789;53.482;9.862;2023-04-06T00:08:13;102103.19;;;1.52;91.08
23241;BME280;11789;53.482;9.862;2023-04-06T00:10:38;102096.09;;;1.46;91.50
23241;BME280;11789;53.482;9.862;2023-04-06T00:13:05;102096.62;;;1.41;91.44
23241;BME280;11789;53.482;9.862;2023-04-06T00:15:31;102099.03;;;1.38;91.39
23241;BME280;11789;53.482;9.862;2023-04-06T00:17:56;102096.56;;;1.39;91.88
23241;BME280;11789;53.482;9.862;2023-04-06T00:20:23;102091.25;;;1.51;91.01
23241;BME280;11789;53.482;9.862;2023-04-06T00:22:48;102090.81;;;1.58;90.12
23241;BME280;11789;53.482;9.862;2023-04-06T00:25:14;102088.69;;;1.51;90.47
23241;BME280;11789;53.482;9.862;2023-04-06T00:27:41;102089.78;;;1.40;90.79
23241;BME280;11789;53.482;9.862;2023-04-06T00:30:07;102089.44;;;1.34;91.62
23241;BME280;11789;53.482;9.862;2023-04-06T00:32:34;102090.66;;;1.25;91.95
23241;BME280;11789;53.482;9.862;2023-04-06T00:35:05;102090.84;;;1.28;92.19
23241;BME280;11789;53.482;9.862;2023-04-06T00:37:30;102083.56;;;1.35;91.48
23241;BME280;11789;53.482;9.862;2023-04-06T00:39:56;102082.88;;;1.22;91.35
23241;BME280;11789;53.482;9.862;2023-04-06T00:42:22;102083.50;;;1.18;91.78
23241;BME280;11789;53.482;9.862;2023-04-06T00:44:55;102083.22;;;1.28;91.36
23241;BME280;11789;53.482;9.862;2023-04-06T00:47:22;102081.09;;;1.21;90.98
23241;BME280;11789;53.482;9.862;2023-04-06T00:49:48;102077.34;;;1.15;91.27
23241;BME280;11789;53.482;9.862;2023-04-06T00:52:14;102078.47;;;1.05;91.64
23241;BME280;11789;53.482;9.862;2023-04-06T00:54:40;102076.72;;;1.04;92.11
23241;BME280;11789;53.482;9.862;2023-04-06T00:57:06;102071.63;;;1.04;92.02
23241;BME280;11789;53.482;9.862;2023-04-06T00:59:31;102079.59;;;0.95;91.99
23241;BME280;11789;53.482;9.862;2023-04-06T01:01:57;102071.91;;;0.94;92.26
23241;BME280;11789;53.482;9.862;2023-04-06T01:04:23;102067.94;;;0.99;91.85
23241;BME280;11789;53.482;9.862;2023-04-06T01:06:49;102064.19;;;1.07;91.64
23241;BME280;11789;53.482;9.862;2023-04-06T01:09:16;102058.22;;;1.07;91.57
23241;BME280;11789;53.482;9.862;2023-04-06T01:11:42;102061.25;;;1.01;91.74
23241;BME280;11789;53.482;9.862;2023-04-06T01:14:08;102061.09;;;0.98;91.88
23241;BME280;11789;53.482;9.862;2023-04-06T01:16:33;102054.34;;;0.98;91.85
23241;BME280;11789;53.482;9.862;2023-04-06T01:18:59;102053.19;;;0.93;91.98
23241;BME280;11789;53.482;9.862;2023-04-06T01:21:25;102046.63;;;0.97;92.25
23241;BME280;11789;53.482;9.862;2023-04-06T01:23:51;102054.06;;;0.94;92.23
23241;BME280;11789;53.482;9.862;2023-04-06T01:26:16;102052.06;;;0.88;92.36
23241;BME280;11789;53.482;9.862;2023-04-06T01:28:42;102051.88;;;0.85;92.41
23241;BME280;11789;53.482;9.862;2023-04-06T01:31:10;102050.56;;;0.77;92.69
23241;BME280;11789;53.482;9.862;2023-04-06T01:33:36;102046.34;;;0.77;93.39
23241;BME280;11789;53.482;9.862;2023-04-06T01:36:02;102049.69;;;0.76;93.36
23241;BME280;11789;53.482;9.862;2023-04-06T01:38:28;102047.56;;;0.69;93.45
23241;BME280;11789;53.482;9.862;2023-04-06T01:40:54;102048.72;;;0.74;93.24
23241;BME280;11789;53.482;9.862;2023-04-06T01:43:20;102042.47;;;0.84;92.07
23241;BME280;11789;53.482;9.862;2023-04-06T01:45:45;102038.97;;;0.82;92.37
23241;BME280;11789;53.482;9.862;2023-04-06T01:48:11;102040.72;;;0.83;92.30
23241;BME280;11789;53.482;9.862;2023-04-06T01:50:36;102043.81;;;0.77;92.67
23241;BME280;11789;53.482;9.862;2023-04-06T01:53:02;102043.63;;;0.74;92.73
23241;BME280;11789;53.482;9.862;2023-04-06T01:55:27;102035.97;;;0.74;92.51
23241;BME280;11789;53.482;9.862;2023-04-06T01:57:53;102032.28;;;0.69;92.87
23241;BME280;11789;53.482;9.862;2023-04-06T02:00:18;102034.91;;;0.71;92.57
23241;BME280;11789;53.482;9.862;2023-04-06T02:02:44;102038.25;;;0.70;92.51
23241;BME280;11789;53.482;9.862;2023-04-06T02:05:10;102038.97;;;0.67;92.70
23241;BME280;11789;53.482;9.862;2023-04-06T02:07:35;102037.22;;;0.66;92.80
23241;BME280;11789;53.482;9.862;2023-04-06T02:10:02;102028.59;;;0.64;93.03
23241;BME280;11789;53.482;9.862;2023-04-06T02:12:28;102033.94;;;0.54;92.76
23241;BME280;11789;53.482;9.862;2023-04-06T02:14:53;102024.47;;;0.51;93.43
23241;BME280;11789;53.482;9.862;2023-04-06T02:17:19;102021.75;;;0.48;93.44
23241;BME280;11789;53.482;9.862;2023-04-06T02:19:44;102028.03;;;0.40;93.53
23241;BME280;11789;53.482;9.862;2023-04-06T02:22:10;102023.22;;;0.45;94.01
23241;BME280;11789;53.482;9.862;2023-04-06T02:24:36;102024.81;;;0.43;93.93
23241;BME280;11789;53.482;9.862;2023-04-06T02:27:01;102020.53;;;0.42;93.71
23241;BME280;11789;53.482;9.862;2023-04-06T02:29:27;102020.41;;;0.40;93.58
23241;BME280;11789;53.482;9.862;2023-04-06T02:31:52;102019.97;;;0.33;93.61
23241;BME280;11789;53.482;9.862;2023-04-06T02:34:18;102015.12;;;0.22;93.87
23241;BME280;11789;53.482;9.862;2023-04-06T02:36:45;102023.06;;;0.14;94.27
23241;BME280;11789;53.482;9.862;2023-04-06T02:39:11;102023.94;;;0.14;94.41
23241;BME280;11789;53.482;9.862;2023-04-06T02:41:36;102012.38;;;0.19;94.81
23241;BME280;11789;53.482;9.862;2023-04-06T02:44:02;102012.06;;;0.28;95.20
23241;BME280;11789;53.482;9.862;2023-04-06T02:46:28;102016.87;;;0.23;94.96
23241;BME280;11789;53.482;9.862;2023-04-06T02:48:54;102026.50;;;0.14;95.06
23241;BME280;11789;53.482;9.862;2023-04-06T02:51:20;102023.00;;;0.12;95.10
23241;BME280;11789;53.482;9.862;2023-04-06T02:53:46;102022.19;;;0.13;95.20
23241;BME280;11789;53.482;9.862;2023-04-06T02:56:11;102021.31;;;0.13;95.18
23241;BME280;11789;53.482;9.862;2023-04-06T02:58:37;102023.94;;;0.14;95.47
23241;BME280;11789;53.482;9.862;2023-04-06T03:01:03;102014.69;;;0.30;94.81
23241;BME280;11789;53.482;9.862;2023-04-06T03:03:29;102018.22;;;0.32;93.64
23241;BME280;11789;53.482;9.862;2023-04-06T03:05:55;102013.47;;;0.23;93.91
23241;BME280;11789;53.482;9.862;2023-04-06T03:08:24;102012.94;;;0.29;94.02
23241;BME280;11789;53.482;9.862;2023-04-06T03:10:49;102010.88;;;0.36;93.29
23241;BME280;11789;53.482;9.862;2023-04-06T03:13:15;102010.59;;;0.32;93.27
23241;BME280;11789;53.482;9.862;2023-04-06T03:15:40;102012.34;;;0.33;92.97
23241;BME280;11789;53.482;9.862;2023-04-06T03:18:06;102011.12;;;0.26;93.14
23241;BME280;11789;53.482;9.862;2023-04-06T03:20:31;102010.31;;;0.27;93.23
23241;BME280;11789;53.482;9.862;2023-04-06T03:22:57;102012.06;;;0.28;92.77
23241;BME280;11789;53.482;9.862;2023-04-06T03:25:23;102011.72;;;0.22;93.11
23241;BME280;11789;53.482;9.862;2023-04-06T03:27:48;102008.88;;;0.17;93.47
23241;BME280;11789;53.482;9.862;2023-04-06T03:30:14;102021.25;;;0.11;93.79
23241;BME280;11789;53.482;9.862;2023-04-06T03:32:45;102007.81;;;0.14;94.15
23241;BME280;11789;53.482;9.862;2023-04-06T03:35:10;102011.06;;;0.11;93.69
23241;BME280;11789;53.482;9.862;2023-04-06T03:37:36;102021.06;;;0.08;93.92
23241;BME280;11789;53.482;9.862;2023-04-06T03:40:02;102024.19;;;0.04;94.06
23241;BME280;11789;53.482;9.862;2023-04-06T03:42:28;102016.03;;;0.10;93.93
23241;BME280;11789;53.482;9.862;2023-04-06T03:44:53;102023.44;;;0.05;93.92
23241;BME280;11789;53.482;9.862;2023-04-06T03:47:19;102025.69;;;0.01;93.73
23241;BME280;11789;53.482;9.862;2023-04-06T03:49:45;102019.72;;;0.00;94.01
23241;BME280;11789;53.482;9.862;2023-04-06T03:52:11;102022.87;;;-0.04;94.34
23241;BME280;11789;53.482;9.862;2023-04-06T03:54:36;102020.72;;;-0.11;94.29
23241;BME280;11789;53.482;9.862;2023-04-06T03:57:02;102027.78;;;-0.20;94.49
23241;BME280;11789;53.482;9.862;2023-04-06T03:59:28;102027.00;;;-0.19;94.67
23241;BME280;11789;53.482;9.862;2023-04-06T04:01:53;102027.69;;;-0.22;94.70
23241;BME280;11789;53.482;9.862;2023-04-06T04:04:19;102026.81;;;-0.22;94.42
23241;BME280;11789;53.482;9.862;2023-04-06T04:06:44;102021.22;;;-0.17;94.36
23241;BME280;11789;53.482;9.862;2023-04-06T04:09:10;102023.09;;;-0.14;94.11
23241;BME280;11789;53.482;9.862;2023-04-06T04:11:35;102033.13;;;-0.16;94.26
23241;BME280;11789;53.482;9.862;2023-04-06T04:14:01;102028.56;;;-0.21;94.40
23241;BME280;11789;53.482;9.862;2023-04-06T04:16:26;102025.06;;;-0.23;94.57
23241;BME280;11789;53.482;9.862;2023-04-06T04:18:52;102033.06;;;-0.31;95.10
23241;BME280;11789;53.482;9.862;2023-04-06T04:21:17;102033.97;;;-0.30;95.63
23241;BME280;11789;53.482;9.862;2023-04-06T04:23:43;102031.91;;;-0.36;95.92
23241;BME280;11789;53.482;9.862;2023-04-06T04:26:08;102038.50;;;-0.39;96.03
23241;BME280;11789;53.482;9.862;2023-04-06T04:28:34;102033.69;;;-0.35;95.96
23241;BME280;11789;53.482;9.862;2023-04-06T04:30:59;102039.81;;;-0.31;96.32
23241;BME280;11789;53.482;9.862;2023-04-06T04:33:25;102032.69;;;-0.37;96.35
23241;BME280;11789;53.482;9.862;2023-04-06T04:35:50;102035.44;;;-0.34;95.94
23241;BME280;11789;53.482;9.862;2023-04-06T04:38:16;102038.84;;;-0.33;95.84
23241;BME280;11789;53.482;9.862;2023-04-06T04:40:41;102034.28;;;-0.39;95.71
23241;BME280;11789;53.482;9.862;2023-04-06T04:43:07;102042.78;;;-0.38;95.83
23241;BME280;11789;53.482;9.862;2023-04-06T04:45:32;102041.69;;;-0.42;95.90
23241;BME280;11789;53.482;9.862;2023-04-06T04:47:58;102035.16;;;-0.38;95.84
23241;BME280;11789;53.482;9.862;2023-04-06T04:50:23;102037.00;;;-0.36;95.88
23241;BME280;11789;53.482;9.862;2023-04-06T04:52:49;102037.97;;;-0.34;95.46
23241;BME280;11789;53.482;9.862;2023-04-06T04:55:15;102039.72;;;-0.33;95.37
23241;BME280;11789;53.482;9.862;2023-04-06T04:57:40;102036.59;;;-0.29;95.11
23241;BME280;11789;53.482;9.862;2023-04-06T05:00:06;102035.03;;;-0.27;94.84
23241;BME280;11789;53.482;9.862;2023-04-06T05:02:32;102041.41;;;-0.33;94.65
23241;BME280;11789;53.482;9.862;2023-04-06T05:04:57;102038.16;;;-0.31;95.22
23241;BME280;11789;53.482;9.862;2023-04-06T05:07:23;102035.81;;;-0.28;95.65
23241;BME280;11789;53.482;9.862;2023-04-06T05:09:49;102034.94;;;-0.28;95.59
23241;BME280;11789;53.482;9.862;2023-04-06T05:12:14;102041.59;;;-0.30;95.68
23241;BME280;11789;53.482;9.862;2023-04-06T05:14:40;102039.06;;;-0.30;95.90
23241;BME280;11789;53.482;9.862;2023-04-06T05:17:06;102035.22;;;-0.23;95.79
23241;BME280;11789;53.482;9.862;2023-04-06T05:19:31;102031.22;;;-0.20;95.93
23241;BME280;11789;53.482;9.862;2023-04-06T05:21:57;102035.50;;;-0.19;95.93
23241;BME280;11789;53.482;9.862;2023-04-06T05:24:22;102031.59;;;-0.14;95.98
23241;BME280;11789;53.482;9.862;2023-04-06T05:26:48;102033.03;;;-0.04;95.87
23241;BME280;11789;53.482;9.862;2023-04-06T05:29:14;102041.09;;;0.04;95.83
23241;BME280;11789;53.482;9.862;2023-04-06T05:31:40;102036.38;;;0.10;95.85
23241;BME280;11789;53.482;9.862;2023-04-06T05:34:06;102034.13;;;0.14;95.62
23241;BME280;11789;53.482;9.862;2023-04-06T05:36:31;102032.66;;;0.18;95.61
23241;BME280;11789;53.482;9.862;2023-04-06T05:38:57;102021.16;;;0.24;95.30
23241;BME280;11789;53.482;9.862;2023-04-06T05:41:24;102024.25;;;0.34;94.83
23241;BME280;11789;53.482;9.862;2023-04-06T05:43:49;102026.41;;;0.41;94.38
23241;BME280;11789;53.482;9.862;2023-04-06T05:46:15;102026.66;;;0.45;93.84
23241;BME280;11789;53.482;9.862;2023-04-06T05:48:40;102029.84;;;0.56;93.21
23241;BME280;11789;53.482;9.862;2023-04-06T05:51:06;102022.84;;;0.67;92.43
23241;BME280;11789;53.482;9.862;2023-04-06T05:53:32;102020.91;;;0.77;91.96
23241;BME280;11789;53.482;9.862;2023-04-06T05:56:01;102025.81;;;0.89;91.25
23241;BME280;11789;53.482;9.862;2023-04-06T05:58:27;102021.56;;;1.04;90.38
23241;BME280;11789;53.482;9.862;2023-04-06T06:01:00;102023.06;;;1.16;89.76
23241;BME280;11789;53.482;9.862;2023-04-06T06:03:26;102027.50;;;1.35;89.33
23241;BME280;11789;53.482;9.862;2023-04-06T06:05:51;102022.44;;;1.51;88.16
23241;BME280;11789;53.482;9.862;2023-04-06T06:08:17;102011.94;;;1.61;87.13
23241;BME280;11789;53.482;9.862;2023-04-06T06:10:42;102022.03;;;1.74;86.09
23241;BME280;11789;53.482;9.862;2023-04-06T06:13:08;102018.62;;;1.90;85.33
23241;BME280;11789;53.482;9.862;2023-04-06T06:15:35;102017.91;;;2.09;84.35
23241;BME280;11789;53.482;9.862;2023-04-06T06:18:00;102017.72;;;2.22;83.29
23241;BME280;11789;53.482;9.862;2023-04-06T06:20:27;102019.50;;;2.40;82.62
23241;BME280;11789;53.482;9.862;2023-04-06T06:22:52;102019.38;;;2.54;81.76
23241;BME280;11789;53.482;9.862;2023-04-06T06:25:18;102023.06;;;2.77;81.37
23241;BME280;11789;53.482;9.862;2023-04-06T06:27:43;102018.72;;;2.93;79.19
23241;BME280;11789;53.482;9.862;2023-04-06T06:30:09;102021.19;;;3.09;78.30
23241;BME280;11789;53.482;9.862;2023-04-06T06:32:35;102030.88;;;3.15;76.52
23241;BME280;11789;53.482;9.862;2023-04-06T06:35:00;102025.00;;;3.17;75.75
23241;BME280;11789;53.482;9.862;2023-04-06T06:37:26;102028.81;;;3.25;75.19
23241;BME280;11789;53.482;9.862;2023-04-06T06:39:51;102023.19;;;3.32;74.23
23241;BME280;11789;53.482;9.862;2023-04-06T06:42:17;102030.47;;;3.43;74.10
23241;BME280;11789;53.482;9.862;2023-04-06T06:44:43;102023.09;;;3.49;73.02
23241;BME280;11789;53.482;9.862;2023-04-06T06:47:08;102026.97;;;3.58;73.00
23241;BME280;11789;53.482;9.862;2023-04-06T06:49:34;102025.38;;;3.60;72.02
23241;BME280;11789;53.482;9.862;2023-04-06T06:52:00;102017.81;;;3.63;72.56
23241;BME280;11789;53.482;9.862;2023-04-06T06:54:25;102022.69;;;3.77;72.77
23241;BME280;11789;53.482;9.862;2023-04-06T06:56:51;102025.09;;;3.74;71.55
23241;BME280;11789;53.482;9.862;2023-04-06T06:59:16;102026.53;;;3.86;71.56
23241;BME280;11789;53.482;9.862;2023-04-06T07:01:42;102026.81;;;3.93;70.93
23241;BME280;11789;53.482;9.862;2023-04-06T07:04:07;102018.25;;;3.92;71.25
23241;BME280;11789;53.482;9.862;2023-04-06T07:06:36;102016.84;;;3.99;71.29
23241;BME280;11789;53.482;9.862;2023-04-06T07:09:02;102012.16;;;4.08;70.54
23241;BME280;11789;53.482;9.862;2023-04-06T07:11:29;102015.12;;;4.17;71.00
23241;BME280;11789;53.482;9.862;2023-04-06T07:13:55;102014.44;;;4.21;69.95
23241;BME280;11789;53.482;9.862;2023-04-06T07:16:21;102005.81;;;4.19;69.40
23241;BME280;11789;53.482;9.862;2023-04-06T07:18:46;102009.13;;;4.36;69.70
23241;BME280;11789;53.482;9.862;2023-04-06T07:21:12;102009.75;;;4.51;69.70
23241;BME280;11789;53.482;9.862;2023-04-06T07:23:38;102002.38;;;4.59;68.90
23241;BME280;11789;53.482;9.862;2023-04-06T07:26:03;102009.44;;;4.64;67.76
23241;BME280;11789;53.482;9.862;2023-04-06T07:28:29;102001.34;;;4.75;68.03
23241;BME280;11789;53.482;9.862;2023-04-06T07:30:54;102008.78;;;4.89;66.98
23241;BME280;11789;53.482;9.862;2023-04-06T07:33:20;101997.41;;;5.04;66.65
23241;BME280;11789;53.482;9.862;2023-04-06T07:35:46;102000.09;;;5.29;66.85
23241;BME280;11789;53.482;9.862;2023-04-06T07:38:12;102004.44;;;5.53;58.91
23241;BME280;11789;53.482;9.862;2023-04-06T07:40:37;102006.53;;;5.63;53.55
23241;BME280;11789;53.482;9.862;2023-04-06T07:43:03;102005.12;;;5.71;52.03
23241;BME280;11789;53.482;9.862;2023-04-06T07:45:29;102005.12;;;5.71;50.75
23241;BME280;11789;53.482;9.862;2023-04-06T07:47:55;102004.53;;;5.78;50.52
23241;BME280;11789;53.482;9.862;2023-04-06T07:50:20;101996.41;;;5.90;50.04
23241;BME280;11789;53.482;9.862;2023-04-06T07:52:46;101998.47;;;5.98;49.97
23241;BME280;11789;53.482;9.862;2023-04-06T07:55:12;101996.66;;;6.20;50.87
23241;BME280;11789;53.482;9.862;2023-04-06T07:57:37;101996.25;;;6.33;49.95
23241;BME280;11789;53.482;9.862;2023-04-06T08:00:03;101994.00;;;6.42;48.76
23241;BME280;11789;53.482;9.862;2023-04-06T08:02:31;101993.25;;;6.45;48.53
23241;BME280;11789;53.482;9.862;2023-04-06T08:04:56;101990.09;;;6.54;48.04
23241;BME280;11789;53.482;9.862;2023-04-06T08:07:22;101987.19;;;6.68;48.03
23241;BME280;11789;53.482;9.862;2023-04-06T08:09:47;101987.84;;;6.88;48.31
23241;BME280;11789;53.482;9.862;2023-04-06T08:12:13;101982.22;;;7.00;48.08
23241;BME280;11789;53.482;9.862;2023-04-06T08:14:39;101989.34;;;7.09;47.16
23241;BME280;11789;53.482;9.862;2023-04-06T08:17:04;101987.09;;;7.19;47.39
23241;BME280;11789;53.482;9.862;2023-04-06T08:19:30;101982.75;;;7.17;46.29
23241;BME280;11789;53.482;9.862;2023-04-06T08:21:55;101988.00;;;7.20;45.58
23241;BME280;11789;53.482;9.862;2023-04-06T08:24:21;101984.19;;;7.36;46.20
23241;BME280;11789;53.482;9.862;2023-04-06T08:26:46;101973.84;;;7.34;46.06
23241;BME280;11789;53.482;9.862;2023-04-06T08:29:12;101979.44;;;7.49;46.35
23241;BME280;11789;53.482;9.862;2023-04-06T08:31:37;101968.56;;;7.58;44.10
23241;BME280;11789;53.482;9.862;2023-04-06T08:34:03;101959.22;;;7.62;43.70
23241;BME280;11789;53.482;9.862;2023-04-06T08:36:30;101969.25;;;7.83;44.01
23241;BME280;11789;53.482;9.862;2023-04-06T08:38:56;101965.87;;;7.85;43.82
23241;BME280;11789;53.482;9.862;2023-04-06T08:41:22;101964.25;;;7.87;43.31
23241;BME280;11789;53.482;9.862;2023-04-06T08:43:49;101964.53;;;7.98;43.29
23241;BME280;11789;53.482;9.862;2023-04-06T08:46:15;101961.50;;;8.13;42.38
23241;BME280;11789;53.482;9.862;2023-04-06T08:48:42;101966.56;;;8.10;41.52
23241;BME280;11789;53.482;9.862;2023-04-06T08:51:09;101952.44;;;8.27;41.73
23241;BME280;11789;53.482;9.862;2023-04-06T08:53:36;101958.94;;;8.44;41.02
23241;BME280;11789;53.482;9.862;2023-04-06T08:56:02;101955.66;;;8.51;41.75
23241;BME280;11789;53.482;9.862;2023-04-06T08:58:33;101954.41;;;8.70;40.85
23241;BME280;11789;53.482;9.862;2023-04-06T09:00:59;101956.13;;;8.70;40.36
23241;BME280;11789;53.482;9.862;2023-04-06T09:03:26;101957.69;;;8.63;39.57
23241;BME280;11789;53.482;9.862;2023-04-06T09:05:53;101953.56;;;8.71;40.29
23241;BME280;11789;53.482;9.862;2023-04-06T09:08:19;101947.88;;;8.83;40.77
23241;BME280;11789;53.482;9.862;2023-04-06T09:10:45;101951.31;;;8.83;38.71
23241;BME280;11789;53.482;9.862;2023-04-06T09:13:10;101956.50;;;8.85;39.38
23241;BME280;11789;53.482;9.862;2023-04-06T09:15:37;101943.97;;;9.00;39.10
23241;BME280;11789;53.482;9.862;2023-04-06T09:18:02;101941.50;;;9.05;38.71
23241;BME280;11789;53.482;9.862;2023-04-06T09:20:28;101940.53;;;9.01;38.60
23241;BME280;11789;53.482;9.862;2023-04-06T09:22:54;101943.34;;;9.10;38.88
23241;BME280;11789;53.482;9.862;2023-04-06T09:25:23;101943.34;;;9.12;38.47
23241;BME280;11789;53.482;9.862;2023-04-06T09:27:58;101959.16;;;9.26;38.67
23241;BME280;11789;53.482;9.862;2023-04-06T09:30:24;101947.97;;;9.25;38.41
23241;BME280;11789;53.482;9.862;2023-04-06T09:32:54;101947.00;;;9.22;38.32
23241;BME280;11789;53.482;9.862;2023-04-06T09:35:21;101937.66;;;9.27;37.99
23241;BME280;11789;53.482;9.862;2023-04-06T09:37:48;101937.72;;;9.28;38.68
23241;BME280;11789;53.482;9.862;2023-04-06T09:40:14;101917.34;;;9.42;38.08
23241;BME280;11789;53.482;9.862;2023-04-06T09:42:45;101924.97;;;9.36;38.29
23241;BME280;11789;53.482;9.862;2023-04-06T09:45:11;101915.69;;;9.44;38.23
23241;BME280;11789;53.482;9.862;2023-04-06T09:47:37;101926.00;;;9.44;38.11
23241;BME280;11789;53.482;9.862;2023-04-06T09:50:05;101918.06;;;9.35;38.27
23241;BME280;11789;53.482;9.862;2023-04-06T09:52:42;101903.56;;;9.40;38.62
23241;BME280;11789;53.482;9.862;2023-04-06T09:55:09;101902.81;;;9.47;37.43
23241;BME280;11789;53.482;9.862;2023-04-06T09:57:51;101909.00;;;9.54;38.63
23241;BME280;11789;53.482;9.862;2023-04-06T10:00:21;101903.97;;;9.61;37.75
23241;BME280;11789;53.482;9.862;2023-04-06T10:05:50;101898.25;;;9.78;37.17
23241;BME280;11789;53.482;9.862;2023-04-06T10:08:18;101909.56;;;9.83;37.08
23241;BME280;11789;53.482;9.862;2023-04-06T10:10:44;101901.75;;;9.80;35.88
23241;BME280;11789;53.482;9.862;2023-04-06T10:13:11;101900.22;;;9.90;37.71
23241;BME280;11789;53.482;9.862;2023-04-06T10:15:38;101900.12;;;9.83;36.05
23241;BME280;11789;53.482;9.862;2023-04-06T10:18:05;101898.50;;;9.90;37.44
23241;BME280;11789;53.482;9.862;2023-04-06T10:20:43;101895.53;;;10.16;37.21
23241;BME280;11789;53.482;9.862;2023-04-06T10:23:32;101903.88;;;10.02;35.77
23241;BME280;11789;53.482;9.862;2023-04-06T10:26:00;101909.03;;;9.99;35.69
23241;BME280;11789;53.482;9.862;2023-04-06T10:28:31;101911.34;;;9.87;35.32
23241;BME280;11789;53.482;9.862;2023-04-06T10:30:58;101903.69;;;9.92;35.33
23241;BME280;11789;53.482;9.862;2023-04-06T10:33:24;101901.31;;;10.02;35.92
23241;BME280;11789;53.482;9.862;2023-04-06T10:35:50;101898.03;;;10.12;35.22
23241;BME280;11789;53.482;9.862;2023-04-06T10:38:15;101902.13;;;10.00;34.92
23241;BME280;11789;53.482;9.862;2023-04-06T10:40:45;101905.59;;;10.00;34.61
23241;BME280;11789;53.482;9.862;2023-04-06T10:43:21;101894.41;;;10.01;35.30
23241;BME280;11789;53.482;9.862;2023-04-06T10:46:00;101891.25;;;10.18;35.47
23241;BME280;11789;53.482;9.862;2023-04-06T10:48:40;101886.28;;;10.27;35.76
23241;BME280;11789;53.482;9.862;2023-04-06T10:51:16;101883.00;;;10.37;35.53
23241;BME280;11789;53.482;9.862;2023-04-06T10:53:47;101877.81;;;10.37;35.77
23241;BME280;11789;53.482;9.862;2023-04-06T10:56:18;101869.97;;;10.31;34.44
23241;BME280;11789;53.482;9.862;2023-04-06T10:58:47;101881.03;;;10.24;35.51
23241;BME280;11789;53.482;9.862;2023-04-06T11:01:18;101878.59;;;10.31;36.29
23241;BME280;11789;53.482;9.862;2023-04-06T11:03:48;101890.66;;;10.31;35.43
23241;BME280;11789;53.482;9.862;2023-04-06T11:06:19;101877.63;;;10.25;35.33
23241;BME280;11789;53.482;9.862;2023-04-06T11:08:45;101875.09;;;10.28;35.24
23241;BME280;11789;53.482;9.862;2023-04-06T11:11:12;101871.72;;;10.32;35.74
23241;BME280;11789;53.482;9.862;2023-04-06T11:13:48;101872.78;;;10.45;35.20
23241;BME280;11789;53.482;9.862;2023-04-06T11:16:19;101866.00;;;10.51;36.05
23241;BME280;11789;53.482;9.862;2023-04-06T11:21:42;101860.91;;;10.59;34.79
23241;BME280;11789;53.482;9.862;2023-04-06T11:24:22;101848.91;;;10.62;35.44
23241;BME280;11789;53.482;9.862;2023-04-06T11:26:49;101848.25;;;10.76;34.76
23241;BME280;11789;53.482;9.862;2023-04-06T11:29:27;101850.06;;;10.80;35.45
23241;BME280;11789;53.482;9.862;2023-04-06T11:31:57;101846.84;;;10.99;34.86
23241;BME280;11789;53.482;9.862;2023-04-06T11:34:24;101864.13;;;11.00;34.96
23241;BME280;11789;53.482;9.862;2023-04-06T11:36:58;101845.09;;;10.97;35.34
23241;BME280;11789;53.482;9.862;2023-04-06T11:39:27;101844.19;;;10.93;34.91
23241;BME280;11789;53.482;9.862;2023-04-06T11:42:00;101840.88;;;11.05;34.79
23241;BME280;11789;53.482;9.862;2023-04-06T11:44:35;101847.91;;;11.13;34.22
23241;BME280;11789;53.482;9.862;2023-04-06T11:47:06;101844.38;;;11.08;34.76
23241;BME280;11789;53.482;9.862;2023-04-06T11:49:33;101843.56;;;11.12;34.89
23241;BME280;11789;53.482;9.862;2023-04-06T11:52:00;101839.25;;;11.13;34.74
23241;BME280;11789;53.482;9.862;2023-04-06T11:54:36;101834.94;;;11.12;34.22
23241;BME280;11789;53.482;9.862;2023-04-06T11:57:05;101829.03;;;11.24;33.77
23241;BME280;11789;53.482;9.862;2023-04-06T11:59:32;101840.25;;;11.23;32.00
23241;BME280;11789;53.482;9.862;2023-04-06T12:01:58;101841.16;;;11.26;32.99
23241;BME280;11789;53.482;9.862;2023-04-06T12:04:24;101825.59;;;11.23;32.50
23241;BME280;11789;53.482;9.862;2023-04-06T12:06:49;101827.47;;;11.36;32.84
23241;BME280;11789;53.482;9.862;2023-04-06T12:09:16;101825.84;;;11.46;32.76
23241;BME280;11789;53.482;9.862;2023-04-06T12:11:45;101848.31;;;11.49;32.57
23241;BME280;11789;53.482;9.862;2023-04-06T12:14:11;101841.34;;;11.43;31.49
23241;BME280;11789;53.482;9.862;2023-04-06T12:16:37;101816.31;;;11.42;31.77
23241;BME280;11789;53.482;9.862;2023-04-06T12:19:03;101821.56;;;11.48;32.79
23241;BME280;11789;53.482;9.862;2023-04-06T12:21:30;101819.13;;;11.62;32.16
23241;BME280;11789;53.482;9.862;2023-04-06T12:24:00;101817.50;;;11.73;31.85
23241;BME280;11789;53.482;9.862;2023-04-06T12:26:29;101823.69;;;11.84;32.40
23241;BME280;11789;53.482;9.862;2023-04-06T12:28:55;101815.12;;;11.91;32.42
23241;BME280;11789;53.482;9.862;2023-04-06T12:31:22;101800.31;;;11.81;31.56
23241;BME280;11789;53.482;9.862;2023-04-06T12:33:49;101807.25;;;11.82;31.91
23241;BME280;11789;53.482;9.862;2023-04-06T12:36:16;101800.28;;;11.78;31.57
23241;BME280;11789;53.482;9.862;2023-04-06T12:38:44;101818.50;;;11.83;31.32
23241;BME280;11789;53.482;9.862;2023-04-06T12:41:11;101809.00;;;11.82;31.53
23241;BME280;11789;53.482;9.862;2023-04-06T12:43:38;101815.12;;;11.94;32.07
23241;BME280;11789;53.482;9.862;2023-04-06T12:46:04;101807.34;;;11.96;31.79
23241;BME280;11789;53.482;9.862;2023-04-06T12:48:30;101813.19;;;11.74;30.16
23241;BME280;11789;53.482;9.862;2023-04-06T12:51:01;101807.94;;;11.67;30.74
23241;BME280;11789;53.482;9.862;2023-04-06T12:53:27;101807.97;;;11.70;31.58
23241;BME280;11789;53.482;9.862;2023-04-06T12:55:54;101809.78;;;11.78;31.71
23241;BME280;11789;53.482;9.862;2023-04-06T12:58:21;101805.53;;;11.84;32.33
23241;BME280;11789;53.482;9.862;2023-04-06T13:00:50;101808.16;;;11.87;30.74